createdAt,value
2022-10-23T00:00:10.829Z,15.80
2022-10-23T00:03:02.893Z,15.76
2022-10-23T00:05:34.918Z,15.72
2022-10-23T00:08:07.040Z,15.70
2022-10-23T00:10:44.357Z,15.69
2022-10-23T00:13:16.601Z,15.70
2022-10-23T00:15:48.621Z,15.72
2022-10-23T00:18:20.943Z,15.69
2022-10-23T00:20:53.011Z,15.72
2022-10-23T00:23:25.784Z,15.70
2022-10-23T00:25:57.789Z,15.71
2022-10-23T00:28:30.075Z,15.70
2022-10-23T00:31:04.776Z,15.70
2022-10-23T00:33:37.318Z,15.63
2022-10-23T00:36:12.764Z,15.59
2022-10-23T00:38:45.959Z,15.61
2022-10-23T00:41:22.030Z,15.49
2022-10-23T00:44:10.797Z,15.49
2022-10-23T00:46:43.021Z,15.43
2022-10-23T00:49:16.279Z,15.38
2022-10-23T00:51:52.563Z,15.41
2022-10-23T00:54:28.053Z,15.38
2022-10-23T00:57:06.222Z,15.29
2022-10-23T00:59:39.288Z,15.24
2022-10-23T01:02:12.083Z,15.35
2022-10-23T01:04:44.817Z,15.33
2022-10-23T01:07:23.986Z,15.31
2022-10-23T01:10:04.821Z,15.31
2022-10-23T01:12:45.832Z,15.28
2022-10-23T01:15:23.187Z,15.19
2022-10-23T01:18:04.468Z,15.25
2022-10-23T01:20:45.596Z,15.27
2022-10-23T01:23:43.583Z,15.22
2022-10-23T01:26:32.414Z,15.30
2022-10-23T01:29:11.273Z,15.33
2022-10-23T01:31:51.361Z,15.33
2022-10-23T01:34:29.767Z,15.26
2022-10-23T01:37:05.812Z,15.28
2022-10-23T01:39:46.098Z,15.30
2022-10-23T01:42:23.551Z,15.25
2022-10-23T01:45:01.606Z,15.29
2022-10-23T01:47:40.711Z,15.09
2022-10-23T01:50:17.145Z,15.04
2022-10-23T01:52:51.379Z,15.04
2022-10-23T01:55:24.104Z,15.00
2022-10-23T01:57:57.166Z,15.00
2022-10-23T02:00:32.512Z,15.01
2022-10-23T02:03:04.665Z,15.02
2022-10-23T02:05:39.695Z,14.95
2022-10-23T02:08:12.134Z,14.91
2022-10-23T02:10:51.456Z,14.89
2022-10-23T02:13:32.415Z,14.84
2022-10-23T02:16:13.108Z,14.79
2022-10-23T02:18:53.628Z,14.67
2022-10-23T02:21:32.360Z,14.75
2022-10-23T02:24:08.894Z,14.74
2022-10-23T02:26:48.243Z,14.75
2022-10-23T02:29:27.357Z,14.74
2022-10-23T02:32:01.820Z,14.78
2022-10-23T02:34:34.499Z,14.86
2022-10-23T02:37:06.707Z,14.89
2022-10-23T02:39:38.917Z,14.82
2022-10-23T02:42:19.428Z,14.86
2022-10-23T02:45:01.953Z,14.84
2022-10-23T02:47:52.085Z,14.86
2022-10-23T02:50:33.649Z,14.89
2022-10-23T02:53:14.111Z,14.84
2022-10-23T02:55:57.379Z,14.62
2022-10-23T02:58:38.482Z,14.63
2022-10-23T03:01:15.208Z,14.61
2022-10-23T03:03:56.769Z,14.67
2022-10-23T03:06:29.190Z,14.67
2022-10-23T03:09:05.031Z,14.74
2022-10-23T03:11:37.063Z,14.75
2022-10-23T03:14:09.389Z,14.67
2022-10-23T03:16:41.597Z,14.77
2022-10-23T03:19:15.538Z,14.75
2022-10-23T03:21:47.950Z,14.74
2022-10-23T03:24:19.932Z,14.66
2022-10-23T03:26:51.902Z,14.75
2022-10-23T03:29:25.738Z,14.59
2022-10-23T03:31:58.288Z,14.53
2022-10-23T03:34:31.165Z,14.57
2022-10-23T03:37:03.491Z,14.62
2022-10-23T03:39:36.811Z,14.64
2022-10-23T03:42:08.819Z,14.63
2022-10-23T03:44:40.993Z,14.61
2022-10-23T03:47:12.985Z,14.60
2022-10-23T03:49:47.328Z,14.64
2022-10-23T03:52:19.236Z,14.66
2022-10-23T03:54:51.236Z,14.72
2022-10-23T03:57:24.252Z,14.59
2022-10-23T03:59:56.809Z,14.65
2022-10-23T04:02:29.351Z,14.75
2022-10-23T04:05:01.457Z,14.77
2022-10-23T04:07:33.889Z,14.81
2022-10-23T04:10:09.281Z,14.81
2022-10-23T04:12:42.025Z,14.76
2022-10-23T04:15:14.628Z,14.79
2022-10-23T04:17:49.985Z,14.81
2022-10-23T04:20:22.357Z,14.88
2022-10-23T04:22:55.576Z,14.87
2022-10-23T04:25:27.550Z,14.88
2022-10-23T04:27:59.514Z,14.88
2022-10-23T04:30:31.718Z,14.83
2022-10-23T04:33:04.034Z,14.89
2022-10-23T04:35:36.264Z,14.93
2022-10-23T04:38:08.213Z,14.92
2022-10-23T04:40:40.201Z,14.93
2022-10-23T04:43:12.796Z,14.88
2022-10-23T04:45:45.503Z,14.89
2022-10-23T04:48:17.522Z,14.89
2022-10-23T04:51:10.849Z,14.89
2022-10-23T04:53:57.454Z,14.92
2022-10-23T04:56:52.275Z,14.87
2022-10-23T04:59:26.297Z,14.82
2022-10-23T05:01:58.497Z,14.90
2022-10-23T05:04:31.051Z,14.91
2022-10-23T05:07:23.433Z,14.91
2022-10-23T05:10:14.186Z,14.91
2022-10-23T05:13:01.499Z,14.91
2022-10-23T05:15:34.240Z,14.90
2022-10-23T05:18:12.923Z,14.87
2022-10-23T05:20:49.688Z,14.83
2022-10-23T05:23:23.734Z,14.85
2022-10-23T05:26:03.269Z,14.83
2022-10-23T05:28:36.550Z,14.78
2022-10-23T05:31:09.729Z,14.73
2022-10-23T05:33:44.499Z,14.78
2022-10-23T05:36:17.477Z,14.82
2022-10-23T05:38:50.115Z,14.83
2022-10-23T05:41:23.541Z,14.87
2022-10-23T05:43:55.997Z,14.78
2022-10-23T05:46:46.859Z,14.86
2022-10-23T05:49:27.030Z,14.88
2022-10-23T05:52:20.221Z,14.88
2022-10-23T05:55:15.067Z,14.85
2022-10-23T05:57:53.536Z,14.92
2022-10-23T06:00:36.567Z,14.90
2022-10-23T06:03:19.686Z,14.92
2022-10-23T06:05:55.631Z,14.94
2022-10-23T06:08:33.466Z,14.76
2022-10-23T06:11:11.130Z,14.86
2022-10-23T06:13:46.067Z,14.92
2022-10-23T06:16:21.593Z,14.85
2022-10-23T06:18:53.693Z,14.91
2022-10-23T06:21:26.122Z,14.90
2022-10-23T06:24:01.559Z,14.91
2022-10-23T06:26:36.813Z,14.96
2022-10-23T06:29:27.259Z,14.99
2022-10-23T06:31:59.561Z,14.97
2022-10-23T06:34:32.367Z,14.85
2022-10-23T06:37:04.602Z,14.89
2022-10-23T06:40:08.028Z,14.91
2022-10-23T06:43:12.537Z,14.83
2022-10-23T06:46:05.044Z,14.80
2022-10-23T06:49:00.174Z,14.84
2022-10-23T06:51:36.511Z,14.88
2022-10-23T06:54:09.466Z,14.99
2022-10-23T06:56:53.859Z,14.88
2022-10-23T06:59:36.642Z,14.81
2022-10-23T07:02:10.163Z,14.79
2022-10-23T07:04:42.566Z,14.82
2022-10-23T07:07:19.979Z,14.81
2022-10-23T07:09:53.581Z,14.83
2022-10-23T07:12:42.789Z,14.93
2022-10-23T07:15:40.880Z,14.96
2022-10-23T07:18:18.992Z,15.02
2022-10-23T07:21:14.308Z,15.06
2022-10-23T07:23:47.248Z,15.08
2022-10-23T07:26:20.575Z,15.13
2022-10-23T07:28:55.208Z,15.16
2022-10-23T07:31:28.152Z,15.16
2022-10-23T07:34:19.156Z,15.22
2022-10-23T07:36:52.542Z,15.24
2022-10-23T07:39:24.893Z,15.27
2022-10-23T07:41:57.164Z,15.13
2022-10-23T07:44:30.080Z,15.09
2022-10-23T07:47:02.079Z,15.09
2022-10-23T07:49:34.116Z,15.19
2022-10-23T07:52:07.547Z,15.11
2022-10-23T07:54:56.957Z,15.06
2022-10-23T07:57:30.464Z,15.18
2022-10-23T08:00:14.764Z,15.14
2022-10-23T08:02:46.904Z,15.07
2022-10-23T08:05:21.575Z,15.03
2022-10-23T08:07:59.680Z,15.07
2022-10-23T08:10:32.054Z,14.86
2022-10-23T08:13:04.666Z,14.99
2022-10-23T08:15:56.880Z,15.00
2022-10-23T08:18:49.868Z,15.07
2022-10-23T08:21:22.173Z,15.10
2022-10-23T08:23:56.547Z,15.16
2022-10-23T08:26:30.383Z,15.08
2022-10-23T08:29:02.797Z,15.13
2022-10-23T08:31:36.216Z,14.87
2022-10-23T08:34:21.321Z,15.10
2022-10-23T08:36:54.157Z,15.12
2022-10-23T08:39:26.273Z,15.00
2022-10-23T08:42:27.336Z,14.96
2022-10-23T08:45:07.476Z,15.04
2022-10-23T08:47:48.260Z,15.09
2022-10-23T08:50:56.530Z,15.15
2022-10-23T08:53:35.823Z,15.23
2022-10-23T08:56:13.740Z,15.25
2022-10-23T09:01:39.738Z,15.23
2022-10-23T09:04:15.256Z,15.37
2022-10-23T09:07:00.077Z,15.42
2022-10-23T09:09:51.459Z,15.43
2022-10-23T09:12:26.979Z,15.49
2022-10-23T09:15:14.948Z,15.54
2022-10-23T09:17:49.134Z,15.50
2022-10-23T09:20:24.500Z,15.34
2022-10-23T09:23:01.347Z,15.37
2022-10-23T09:25:36.395Z,15.25
2022-10-23T09:28:07.530Z,15.27
2022-10-23T09:30:42.704Z,15.36
2022-10-23T09:33:17.221Z,15.39
2022-10-23T09:35:59.079Z,15.30
2022-10-23T09:38:34.619Z,15.39
2022-10-23T09:41:15.181Z,15.43
2022-10-23T09:43:47.632Z,15.38
2022-10-23T09:46:24.728Z,15.33
2022-10-23T09:49:03.575Z,15.28
2022-10-23T09:51:41.865Z,15.43
2022-10-23T09:54:19.660Z,15.47
2022-10-23T09:56:52.979Z,15.58
2022-10-23T09:59:29.058Z,15.68
2022-10-23T10:02:04.041Z,15.70
2022-10-23T10:04:55.931Z,15.78
2022-10-23T10:07:33.394Z,15.82
2022-10-23T10:10:18.073Z,15.76
2022-10-23T10:12:58.402Z,15.76
2022-10-23T10:15:37.512Z,15.91
2022-10-23T10:18:23.186Z,15.86
2022-10-23T10:21:15.364Z,15.95
2022-10-23T10:23:54.504Z,15.97
2022-10-23T10:26:36.321Z,16.12
2022-10-23T10:29:20.278Z,16.19
2022-10-23T10:32:04.416Z,16.28
2022-10-23T10:34:44.323Z,16.32
2022-10-23T10:37:27.979Z,16.38
2022-10-23T10:40:08.560Z,16.50
2022-10-23T10:42:55.675Z,16.52
2022-10-23T10:45:34.455Z,16.55
2022-10-23T10:48:21.730Z,16.63
2022-10-23T10:51:29.051Z,16.92
2022-10-23T10:54:16.504Z,17.17
2022-10-23T10:56:50.239Z,17.20
2022-10-23T10:59:25.130Z,17.26
2022-10-23T11:02:01.268Z,17.35
2022-10-23T11:04:38.392Z,17.42
2022-10-23T11:07:16.120Z,17.63
2022-10-23T11:09:49.009Z,17.81
2022-10-23T11:12:24.894Z,17.95
2022-10-23T11:14:57.745Z,17.89
2022-10-23T11:17:37.595Z,18.08
2022-10-23T11:20:26.496Z,18.05
2022-10-23T11:23:07.151Z,18.19
2022-10-23T11:25:57.902Z,18.07
2022-10-23T11:28:48.617Z,17.98
2022-10-23T11:31:30.957Z,17.96
2022-10-23T11:34:24.455Z,18.18
2022-10-23T11:36:58.607Z,18.32
2022-10-23T11:39:32.580Z,18.33
2022-10-23T11:42:34.862Z,18.41
2022-10-23T11:45:21.225Z,18.56
2022-10-23T11:48:01.319Z,18.66
2022-10-23T11:50:50.631Z,18.70
2022-10-23T11:53:40.644Z,18.81
2022-10-23T11:56:33.988Z,18.94
2022-10-23T11:59:24.489Z,18.78
2022-10-23T12:01:58.740Z,18.95
2022-10-23T12:04:39.515Z,18.96
2022-10-23T12:07:24.101Z,19.10
2022-10-23T12:10:00.648Z,19.13
2022-10-23T12:12:40.934Z,19.18
2022-10-23T12:15:23.511Z,19.09
2022-10-23T12:17:58.628Z,19.09
2022-10-23T12:20:46.102Z,19.19
2022-10-23T12:23:53.356Z,19.22
2022-10-23T12:26:50.876Z,19.26
2022-10-23T12:29:34.300Z,19.15
2022-10-23T12:32:18.636Z,19.22
2022-10-23T12:34:58.644Z,19.06
2022-10-23T12:37:49.490Z,19.12
2022-10-23T12:40:22.060Z,19.25
2022-10-23T12:42:56.079Z,19.11
2022-10-23T12:45:31.051Z,19.22
2022-10-23T12:48:05.594Z,19.29
2022-10-23T12:50:38.334Z,19.28
2022-10-23T12:53:19.006Z,19.06
2022-10-23T12:55:55.683Z,18.85
2022-10-23T12:58:32.903Z,18.92
2022-10-23T13:01:08.492Z,19.01
2022-10-23T13:03:41.414Z,18.91
2022-10-23T13:06:14.679Z,18.93
2022-10-23T13:08:49.040Z,18.94
2022-10-23T13:11:34.926Z,18.80
2022-10-23T13:14:15.293Z,18.93
2022-10-23T13:16:47.416Z,18.86
2022-10-23T13:19:27.746Z,19.01
2022-10-23T13:22:00.535Z,19.04
2022-10-23T13:24:33.921Z,19.09
2022-10-23T13:27:25.729Z,19.13
2022-10-23T13:29:58.423Z,19.15
2022-10-23T13:32:33.154Z,19.13
2022-10-23T13:35:20.811Z,18.99
2022-10-23T13:37:53.766Z,19.05
2022-10-23T13:40:28.376Z,18.88
2022-10-23T13:43:00.674Z,19.04
2022-10-23T13:45:36.822Z,19.05
2022-10-23T13:48:16.188Z,19.09
2022-10-23T13:50:48.456Z,19.08
2022-10-23T13:53:21.358Z,19.16
2022-10-23T13:55:57.800Z,19.18
2022-10-23T13:58:30.905Z,19.19
2022-10-23T14:01:03.847Z,19.18
2022-10-23T14:03:36.739Z,19.11
2022-10-23T14:06:09.624Z,19.18
2022-10-23T14:08:41.779Z,19.34
2022-10-23T14:13:53.601Z,19.37
2022-10-23T14:16:25.994Z,19.41
2022-10-23T14:18:58.503Z,19.28
2022-10-23T14:21:30.713Z,19.23
2022-10-23T14:24:02.863Z,19.18
2022-10-23T14:26:35.148Z,19.13
2022-10-23T14:29:11.395Z,19.07
2022-10-23T14:31:46.266Z,18.99
2022-10-23T14:34:18.237Z,18.93
2022-10-23T14:37:03.518Z,18.86
2022-10-23T14:39:39.900Z,18.78
2022-10-23T14:42:11.978Z,18.69
2022-10-23T14:44:45.079Z,18.64
2022-10-23T14:47:19.058Z,18.50
2022-10-23T14:49:53.502Z,18.50
2022-10-23T14:52:26.114Z,18.40
2022-10-23T14:54:58.222Z,18.33
2022-10-23T14:57:30.678Z,18.26
2022-10-23T15:00:03.290Z,18.23
2022-10-23T15:02:37.396Z,18.08
2022-10-23T15:05:10.389Z,18.09
2022-10-23T15:07:42.630Z,18.03
2022-10-23T15:12:52.956Z,17.95
2022-10-23T15:15:25.152Z,17.91
2022-10-23T15:17:57.607Z,17.87
2022-10-23T15:20:29.631Z,17.80
2022-10-23T15:23:03.095Z,17.79
2022-10-23T15:25:35.345Z,17.77
2022-10-23T15:28:07.724Z,17.72
2022-10-23T15:30:43.558Z,17.67
2022-10-23T15:33:19.192Z,17.53
2022-10-23T15:35:53.002Z,17.58
2022-10-23T15:38:36.981Z,17.54
2022-10-23T15:41:18.707Z,17.44
2022-10-23T15:43:52.087Z,17.38
2022-10-23T15:46:24.493Z,17.39
2022-10-23T15:48:57.365Z,17.34
2022-10-23T15:51:29.614Z,17.21
2022-10-23T15:54:01.799Z,17.26
2022-10-23T15:56:35.354Z,17.22
2022-10-23T15:59:07.606Z,17.19
2022-10-23T16:01:40.193Z,17.17
2022-10-23T16:04:12.572Z,17.15
2022-10-23T16:06:45.116Z,17.13
2022-10-23T16:09:18.176Z,17.08
2022-10-23T16:11:50.615Z,17.03
2022-10-23T16:14:22.783Z,17.00
2022-10-23T16:16:55.005Z,16.96
2022-10-23T16:19:27.192Z,16.85
2022-10-23T16:21:59.416Z,16.85
2022-10-23T16:24:32.212Z,16.83
2022-10-23T16:27:04.648Z,16.80
2022-10-23T16:29:36.745Z,16.78
2022-10-23T16:32:09.138Z,16.76
2022-10-23T16:34:41.965Z,16.72
2022-10-23T16:37:14.115Z,16.69
2022-10-23T16:39:57.571Z,16.67
2022-10-23T16:42:48.289Z,16.57
2022-10-23T16:45:43.821Z,16.62
2022-10-23T16:48:15.954Z,16.58
2022-10-23T16:50:48.045Z,16.47
2022-10-23T16:53:20.317Z,16.46
2022-10-23T16:55:52.617Z,16.53
2022-10-23T16:58:25.421Z,16.44
2022-10-23T17:01:03.419Z,16.47
2022-10-23T17:03:39.100Z,16.46
2022-10-23T17:06:13.431Z,16.41
2022-10-23T17:08:46.037Z,16.39
2022-10-23T17:11:20.381Z,16.37
2022-10-23T17:13:58.545Z,16.36
2022-10-23T17:16:34.566Z,16.34
2022-10-23T17:19:20.787Z,16.34
2022-10-23T17:22:01.020Z,16.31
2022-10-23T17:24:33.770Z,16.28
2022-10-23T17:27:06.621Z,16.27
2022-10-23T17:29:39.725Z,16.26
2022-10-23T17:32:11.768Z,16.26
2022-10-23T17:34:44.265Z,16.26
2022-10-23T17:37:17.337Z,16.25
2022-10-23T17:39:49.314Z,16.26
2022-10-23T17:42:21.415Z,16.25
2022-10-23T17:44:53.531Z,16.26
2022-10-23T17:47:25.716Z,16.25
2022-10-23T17:49:58.560Z,16.14
2022-10-23T17:52:31.007Z,16.22
2022-10-23T17:55:03.248Z,16.22
2022-10-23T17:57:35.366Z,16.21
2022-10-23T18:00:09.618Z,16.20
2022-10-23T18:02:52.772Z,16.20
2022-10-23T18:05:25.070Z,16.18
2022-10-23T18:07:57.431Z,16.19
2022-10-23T18:10:29.702Z,16.09
2022-10-23T18:13:02.133Z,16.18
2022-10-23T18:15:36.611Z,16.14
2022-10-23T18:18:08.862Z,16.10
2022-10-23T18:20:43.844Z,16.09
2022-10-23T18:23:15.913Z,16.08
2022-10-23T18:25:48.117Z,16.06
2022-10-23T18:28:20.811Z,16.09
2022-10-23T18:30:56.174Z,16.08
2022-10-23T18:33:29.804Z,16.09
2022-10-23T18:36:02.097Z,16.08
2022-10-23T18:38:37.032Z,16.04
2022-10-23T18:41:09.269Z,16.04
2022-10-23T18:43:44.099Z,16.02
2022-10-23T18:46:17.681Z,16.02
2022-10-23T18:48:52.099Z,16.01
2022-10-23T18:51:24.068Z,16.00
2022-10-23T18:53:56.570Z,15.97
2022-10-23T18:56:28.560Z,15.97
2022-10-23T18:59:02.910Z,15.95
2022-10-23T19:01:35.706Z,15.93
2022-10-23T19:04:08.842Z,15.92
2022-10-23T19:06:41.946Z,15.91
2022-10-23T19:09:16.498Z,15.89
2022-10-23T19:11:48.698Z,15.88
2022-10-23T19:14:20.904Z,15.86
2022-10-23T19:17:01.016Z,15.86
2022-10-23T19:19:36.214Z,15.85
2022-10-23T19:22:09.622Z,15.82
2022-10-23T19:24:45.329Z,15.80
2022-10-23T19:27:18.439Z,15.79
2022-10-23T19:29:52.304Z,15.80
2022-10-23T19:32:24.557Z,15.79
2022-10-23T19:34:56.699Z,15.76
2022-10-23T19:37:28.833Z,15.82
2022-10-23T19:40:02.573Z,15.81
2022-10-23T19:42:35.189Z,15.93
2022-10-23T19:45:09.451Z,15.92
2022-10-23T19:47:42.612Z,15.91
2022-10-23T19:50:18.854Z,15.98
2022-10-23T19:52:51.229Z,16.00
2022-10-23T19:55:23.326Z,16.05
2022-10-23T19:57:55.445Z,16.04
2022-10-23T20:00:28.537Z,16.08
2022-10-23T20:03:00.756Z,16.06
2022-10-23T20:05:33.394Z,16.05
2022-10-23T20:08:06.277Z,16.05
2022-10-23T20:10:43.866Z,16.04
2022-10-23T20:13:19.931Z,16.01
2022-10-23T20:15:52.879Z,15.97
2022-10-23T20:18:25.961Z,15.93
2022-10-23T20:20:58.324Z,15.92
2022-10-23T20:23:30.795Z,15.93
2022-10-23T20:26:14.642Z,15.95
2022-10-23T20:28:51.392Z,15.95
2022-10-23T20:31:25.714Z,16.02
2022-10-23T20:33:58.992Z,16.03
2022-10-23T20:36:34.944Z,15.98
2022-10-23T20:39:15.285Z,15.97
2022-10-23T20:41:47.898Z,15.95
2022-10-23T20:44:22.669Z,15.95
2022-10-23T20:46:56.242Z,15.92
2022-10-23T20:49:28.887Z,15.92
2022-10-23T20:52:01.439Z,15.82
2022-10-23T20:54:35.467Z,15.89
2022-10-23T20:57:08.773Z,15.86
2022-10-23T20:59:40.979Z,15.84
2022-10-23T21:02:13.434Z,15.81
2022-10-23T21:04:47.711Z,15.79
2022-10-23T21:07:20.955Z,15.78
2022-10-23T21:09:53.096Z,15.74
2022-10-23T21:12:25.365Z,15.71
2022-10-23T21:14:58.632Z,15.70
2022-10-23T21:17:35.805Z,15.68
2022-10-23T21:20:09.543Z,15.64
2022-10-23T21:22:41.786Z,15.64
2022-10-23T21:25:15.808Z,15.62
2022-10-23T21:27:48.019Z,15.61
2022-10-23T21:30:20.221Z,15.59
2022-10-23T21:32:52.334Z,15.57
2022-10-23T21:35:26.586Z,15.52
2022-10-23T21:38:01.458Z,15.50
2022-10-23T21:40:33.768Z,15.47
2022-10-23T21:43:07.057Z,15.43
2022-10-23T21:45:40.949Z,15.43
2022-10-23T21:48:12.938Z,15.41
2022-10-23T21:50:45.732Z,15.31
2022-10-23T21:53:18.269Z,15.37
2022-10-23T21:55:50.358Z,15.36
2022-10-23T21:58:24.816Z,15.33
2022-10-23T22:00:56.941Z,15.29
2022-10-23T22:03:29.596Z,15.27
2022-10-23T22:06:02.644Z,15.24
2022-10-23T22:08:35.116Z,15.25
2022-10-23T22:11:08.722Z,15.23
2022-10-23T22:13:43.749Z,15.22
2022-10-23T22:16:16.581Z,15.23
2022-10-23T22:18:49.306Z,15.25
2022-10-23T22:21:24.173Z,15.28
2022-10-23T22:23:59.743Z,15.36
2022-10-23T22:26:34.532Z,15.30
2022-10-23T22:29:08.494Z,15.34
2022-10-23T22:31:44.218Z,15.38
2022-10-23T22:34:34.885Z,15.33
2022-10-23T22:37:13.861Z,15.23
2022-10-23T22:39:45.797Z,15.22
2022-10-23T22:42:18.102Z,15.28
2022-10-23T22:44:50.218Z,15.31
2022-10-23T22:47:22.097Z,15.31
2022-10-23T22:49:54.385Z,15.30
2022-10-23T22:52:26.479Z,15.30
2022-10-23T22:54:58.486Z,15.28
2022-10-23T22:57:31.848Z,15.27
2022-10-23T23:00:04.225Z,15.26
2022-10-23T23:02:36.226Z,15.26
2022-10-23T23:05:11.183Z,15.25
2022-10-23T23:07:41.877Z,15.26
2022-10-23T23:10:14.000Z,15.27
2022-10-23T23:12:46.417Z,15.27
2022-10-23T23:15:19.205Z,15.29
2022-10-23T23:17:51.233Z,15.30
2022-10-23T23:20:23.311Z,15.31
2022-10-23T23:22:55.294Z,15.27
2022-10-23T23:25:27.572Z,15.30
2022-10-23T23:28:00.037Z,15.32
2022-10-23T23:30:32.009Z,15.33
2022-10-23T23:33:04.342Z,15.34
2022-10-23T23:35:40.188Z,15.33
2022-10-23T23:38:13.242Z,15.32
2022-10-23T23:40:52.807Z,15.31
2022-10-23T23:43:29.994Z,15.29
2022-10-23T23:46:02.276Z,15.35
2022-10-23T23:48:34.279Z,15.37
2022-10-23T23:51:07.009Z,15.37
2022-10-23T23:53:39.321Z,15.36
2022-10-23T23:56:11.977Z,15.33
2022-10-23T23:58:44.222Z,15.37
